sensor_id;sensor_type;location;lat;lon;timestamp;pressure;altitude;pressure_sealevel;temperature;humidity
81509;BME280;70930;52.412;13.554;2024-03-02T00:01:50;100137.78;;;7.93;94.50
81509;BME280;70930;52.412;13.554;2024-03-02T00:04:16;100136.00;;;7.85;95.67
81509;BME280;70930;52.412;13.554;2024-03-02T00:06:42;100128.56;;;7.89;96.01
81509;BME280;70930;52.412;13.554;2024-03-02T00:09:09;100132.34;;;7.95;94.96
81509;BME280;70930;52.412;13.554;2024-03-02T00:11:36;100130.03;;;7.92;95.49
81509;BME280;70930;52.412;13.554;2024-03-02T00:14:02;100131.53;;;7.94;95.03
81509;BME280;70930;52.412;13.554;2024-03-02T00:16:31;100125.41;;;7.94;95.69
81509;BME280;70930;52.412;13.554;2024-03-02T00:19:02;100130.88;;;7.92;96.69
81509;BME280;70930;52.412;13.554;2024-03-02T00:21:29;100127.66;;;8.05;94.94
81509;BME280;70930;52.412;13.554;2024-03-02T00:23:55;100124.03;;;8.06;94.15
81509;BME280;70930;52.412;13.554;2024-03-02T00:26:21;100123.19;;;8.05;94.26
81509;BME280;70930;52.412;13.554;2024-03-02T00:28:46;100119.63;;;7.98;95.29
81509;BME280;70930;52.412;13.554;2024-03-02T00:31:12;100119.47;;;7.92;95.40
81509;BME280;70930;52.412;13.554;2024-03-02T00:33:42;100119.63;;;7.98;94.98
81509;BME280;70930;52.412;13.554;2024-03-02T00:36:08;100119.44;;;8.00;95.29
81509;BME280;70930;52.412;13.554;2024-03-02T00:38:43;100116.09;;;8.06;94.47
81509;BME280;70930;52.412;13.554;2024-03-02T00:41:16;100118.59;;;7.99;94.25
81509;BME280;70930;52.412;13.554;2024-03-02T00:43:44;100122.31;;;8.13;94.23
81509;BME280;70930;52.412;13.554;2024-03-02T00:46:11;100115.25;;;8.05;93.96
81509;BME280;70930;52.412;13.554;2024-03-02T00:48:38;100118.00;;;7.89;94.63
81509;BME280;70930;52.412;13.554;2024-03-02T00:51:04;100116.50;;;7.95;94.93
81509;BME280;70930;52.412;13.554;2024-03-02T00:53:30;100112.50;;;7.99;94.44
81509;BME280;70930;52.412;13.554;2024-03-02T00:55:56;100118.94;;;7.96;94.20
81509;BME280;70930;52.412;13.554;2024-03-02T00:58:22;100117.31;;;7.95;94.64
81509;BME280;70930;52.412;13.554;2024-03-02T01:00:47;100112.78;;;8.04;94.40
81509;BME280;70930;52.412;13.554;2024-03-02T01:03:13;100117.00;;;7.90;95.63
81509;BME280;70930;52.412;13.554;2024-03-02T01:05:42;100109.56;;;7.85;96.42
81509;BME280;70930;52.412;13.554;2024-03-02T01:08:09;100109.38;;;7.95;96.48
81509;BME280;70930;52.412;13.554;2024-03-02T01:10:34;100115.44;;;8.04;95.32
81509;BME280;70930;52.412;13.554;2024-03-02T01:13:00;100109.03;;;7.98;95.33
81509;BME280;70930;52.412;13.554;2024-03-02T01:15:25;100106.03;;;8.01;94.82
81509;BME280;70930;52.412;13.554;2024-03-02T01:17:50;100099.47;;;7.89;95.98
81509;BME280;70930;52.412;13.554;2024-03-02T01:20:16;100105.91;;;7.95;96.76
81509;BME280;70930;52.412;13.554;2024-03-02T01:22:42;100106.44;;;7.90;96.77
81509;BME280;70930;52.412;13.554;2024-03-02T01:25:08;100108.28;;;8.12;96.33
81509;BME280;70930;52.412;13.554;2024-03-02T01:27:34;100103.84;;;8.05;96.20
81509;BME280;70930;52.412;13.554;2024-03-02T01:29:59;100107.25;;;7.91;97.54
81509;BME280;70930;52.412;13.554;2024-03-02T01:32:25;100099.63;;;7.96;97.16
81509;BME280;70930;52.412;13.554;2024-03-02T01:34:50;100100.28;;;7.98;97.63
81509;BME280;70930;52.412;13.554;2024-03-02T01:37:16;100091.63;;;8.04;97.77
81509;BME280;70930;52.412;13.554;2024-03-02T01:39:41;100087.22;;;7.96;99.28
81509;BME280;70930;52.412;13.554;2024-03-02T01:42:06;100079.03;;;8.14;98.57
81509;BME280;70930;52.412;13.554;2024-03-02T01:44:32;100078.59;;;8.02;99.11
81509;BME280;70930;52.412;13.554;2024-03-02T01:46:57;100079.31;;;8.19;99.08
81509;BME280;70930;52.412;13.554;2024-03-02T01:49:23;100081.00;;;8.12;98.71
81509;BME280;70930;52.412;13.554;2024-03-02T01:51:48;100081.00;;;8.12;98.95
81509;BME280;70930;52.412;13.554;2024-03-02T01:54:13;100079.38;;;8.11;98.68
81509;BME280;70930;52.412;13.554;2024-03-02T01:56:39;100072.06;;;8.13;98.22
81509;BME280;70930;52.412;13.554;2024-03-02T01:59:04;100077.16;;;8.23;98.62
81509;BME280;70930;52.412;13.554;2024-03-02T02:01:30;100073.50;;;8.24;98.47
81509;BME280;70930;52.412;13.554;2024-03-02T02:03:56;100075.72;;;8.35;98.43
81509;BME280;70930;52.412;13.554;2024-03-02T02:06:21;100068.28;;;8.39;99.09
81509;BME280;70930;52.412;13.554;2024-03-02T02:08:47;100071.59;;;8.32;99.22
81509;BME280;70930;52.412;13.554;2024-03-02T02:11:15;100072.06;;;8.36;99.90
81509;BME280;70930;52.412;13.554;2024-03-02T02:13:41;100057.75;;;8.30;100.00
81509;BME280;70930;52.412;13.554;2024-03-02T02:16:07;100068.25;;;8.16;100.00
81509;BME280;70930;52.412;13.554;2024-03-02T02:18:33;100069.66;;;8.03;100.00
81509;BME280;70930;52.412;13.554;2024-03-02T02:20:59;100070.78;;;8.09;100.00
81509;BME280;70930;52.412;13.554;2024-03-02T02:23:24;100074.28;;;8.01;100.00
81509;BME280;70930;52.412;13.554;2024-03-02T02:25:49;100067.38;;;8.00;100.00
81509;BME280;70930;52.412;13.554;2024-03-02T02:28:15;100059.34;;;7.85;100.00
81509;BME280;70930;52.412;13.554;2024-03-02T02:30:40;100069.38;;;7.98;100.00
81509;BME280;70930;52.412;13.554;2024-03-02T02:33:06;100072.44;;;8.10;100.00
81509;BME280;70930;52.412;13.554;2024-03-02T02:35:31;100065.19;;;8.04;100.00
81509;BME280;70930;52.412;13.554;2024-03-02T02:37:57;100067.22;;;8.02;100.00
81509;BME280;70930;52.412;13.554;2024-03-02T02:40:24;100072.19;;;8.20;100.00
81509;BME280;70930;52.412;13.554;2024-03-02T02:42:49;100067.38;;;8.23;100.00
81509;BME280;70930;52.412;13.554;2024-03-02T02:45:17;100070.44;;;8.35;100.00
81509;BME280;70930;52.412;13.554;2024-03-02T02:47:43;100071.09;;;8.14;100.00
81509;BME280;70930;52.412;13.554;2024-03-02T02:50:11;100066.78;;;8.13;100.00
81509;BME280;70930;52.412;13.554;2024-03-02T02:52:38;100071.97;;;8.06;100.00
81509;BME280;70930;52.412;13.554;2024-03-02T02:55:09;100075.06;;;7.87;100.00
81509;BME280;70930;52.412;13.554;2024-03-02T02:57:35;100073.25;;;8.10;100.00
81509;BME280;70930;52.412;13.554;2024-03-02T03:00:08;100071.19;;;7.98;100.00
81509;BME280;70930;52.412;13.554;2024-03-02T03:02:40;100068.78;;;8.11;100.00
81509;BME280;70930;52.412;13.554;2024-03-02T03:05:07;100070.69;;;8.25;100.00
81509;BME280;70930;52.412;13.554;2024-03-02T03:07:33;100069.09;;;8.16;100.00
81509;BME280;70930;52.412;13.554;2024-03-02T03:10:02;100068.19;;;8.24;100.00
81509;BME280;70930;52.412;13.554;2024-03-02T03:12:29;100065.44;;;8.17;100.00
81509;BME280;70930;52.412;13.554;2024-03-02T03:14:55;100067.19;;;8.25;100.00
81509;BME280;70930;52.412;13.554;2024-03-02T03:17:23;100068.78;;;8.34;100.00
81509;BME280;70930;52.412;13.554;2024-03-02T03:19:49;100072.16;;;8.51;100.00
81509;BME280;70930;52.412;13.554;2024-03-02T03:22:15;100062.31;;;8.59;100.00
81509;BME280;70930;52.412;13.554;2024-03-02T03:24:40;100062.88;;;8.55;100.00
81509;BME280;70930;52.412;13.554;2024-03-02T03:27:05;100066.88;;;8.51;100.00
81509;BME280;70930;52.412;13.554;2024-03-02T03:29:31;100067.53;;;8.53;100.00
81509;BME280;70930;52.412;13.554;2024-03-02T03:31:56;100065.28;;;8.65;100.00
81509;BME280;70930;52.412;13.554;2024-03-02T03:34:21;100059.78;;;8.66;100.00
81509;BME280;70930;52.412;13.554;2024-03-02T03:36:47;100063.59;;;8.64;100.00
81509;BME280;70930;52.412;13.554;2024-03-02T03:39:12;100074.00;;;8.50;100.00
81509;BME280;70930;52.412;13.554;2024-03-02T03:41:37;100065.63;;;8.62;100.00
81509;BME280;70930;52.412;13.554;2024-03-02T03:44:03;100070.50;;;8.73;100.00
81509;BME280;70930;52.412;13.554;2024-03-02T03:46:29;100068.91;;;8.64;100.00
81509;BME280;70930;52.412;13.554;2024-03-02T03:48:54;100072.22;;;8.66;100.00
81509;BME280;70930;52.412;13.554;2024-03-02T03:51:21;100074.81;;;8.51;100.00
81509;BME280;70930;52.412;13.554;2024-03-02T03:53:47;100068.81;;;8.57;100.00
81509;BME280;70930;52.412;13.554;2024-03-02T03:56:12;100075.00;;;8.64;100.00
81509;BME280;70930;52.412;13.554;2024-03-02T03:58:38;100076.28;;;8.53;100.00
81509;BME280;70930;52.412;13.554;2024-03-02T04:01:03;100073.09;;;8.58;100.00
81509;BME280;70930;52.412;13.554;2024-03-02T04:03:29;100085.59;;;8.49;100.00
81509;BME280;70930;52.412;13.554;2024-03-02T04:05:55;100078.13;;;8.53;100.00
81509;BME280;70930;52.412;13.554;2024-03-02T04:08:21;100085.75;;;8.48;100.00
81509;BME280;70930;52.412;13.554;2024-03-02T04:10:46;100079.56;;;8.55;100.00
81509;BME280;70930;52.412;13.554;2024-03-02T04:13:11;100080.63;;;8.46;100.00
81509;BME280;70930;52.412;13.554;2024-03-02T04:15:37;100081.25;;;8.48;100.00
81509;BME280;70930;52.412;13.554;2024-03-02T04:18:02;100075.00;;;8.64;100.00
81509;BME280;70930;52.412;13.554;2024-03-02T04:20:28;100072.47;;;8.71;100.00
81509;BME280;70930;52.412;13.554;2024-03-02T04:22:53;100066.03;;;8.73;100.00
81509;BME280;70930;52.412;13.554;2024-03-02T04:25:19;100076.59;;;8.73;100.00
81509;BME280;70930;52.412;13.554;2024-03-02T04:27:45;100075.94;;;8.71;100.00
81509;BME280;70930;52.412;13.554;2024-03-02T04:30:10;100069.66;;;8.72;100.00
81509;BME280;70930;52.412;13.554;2024-03-02T04:32:36;100065.81;;;8.75;100.00
81509;BME280;70930;52.412;13.554;2024-03-02T04:35:01;100076.31;;;8.68;100.00
81509;BME280;70930;52.412;13.554;2024-03-02T04:37:27;100077.59;;;8.72;100.00
81509;BME280;70930;52.412;13.554;2024-03-02T04:39:52;100086.06;;;8.53;100.00
81509;BME280;70930;52.412;13.554;2024-03-02T04:42:17;100086.19;;;8.74;100.00
81509;BME280;70930;52.412;13.554;2024-03-02T04:44:43;100089.09;;;8.79;100.00
81509;BME280;70930;52.412;13.554;2024-03-02T04:47:08;100099.38;;;8.59;100.00
81509;BME280;70930;52.412;13.554;2024-03-02T04:49:33;100109.88;;;8.68;100.00
81509;BME280;70930;52.412;13.554;2024-03-02T04:51:59;100100.25;;;8.52;100.00
81509;BME280;70930;52.412;13.554;2024-03-02T04:54:24;100096.50;;;8.69;100.00
81509;BME280;70930;52.412;13.554;2024-03-02T04:56:50;100103.31;;;8.64;100.00
81509;BME280;70930;52.412;13.554;2024-03-02T04:59:16;100107.84;;;8.55;100.00
81509;BME280;70930;52.412;13.554;2024-03-02T05:01:43;100108.38;;;8.73;100.00
81509;BME280;70930;52.412;13.554;2024-03-02T05:04:08;100112.72;;;8.66;100.00
81509;BME280;70930;52.412;13.554;2024-03-02T05:06:39;100117.34;;;8.49;100.00
81509;BME280;70930;52.412;13.554;2024-03-02T05:09:08;100118.78;;;8.52;100.00
81509;BME280;70930;52.412;13.554;2024-03-02T05:11:34;100120.13;;;8.48;100.00
81509;BME280;70930;52.412;13.554;2024-03-02T05:14:03;100131.09;;;8.36;100.00
81509;BME280;70930;52.412;13.554;2024-03-02T05:16:28;100130.63;;;8.41;100.00
81509;BME280;70930;52.412;13.554;2024-03-02T05:18:53;100138.59;;;8.56;100.00
81509;BME280;70930;52.412;13.554;2024-03-02T05:21:19;100132.06;;;8.67;100.00
81509;BME280;70930;52.412;13.554;2024-03-02T05:23:44;100130.72;;;8.71;100.00
81509;BME280;70930;52.412;13.554;2024-03-02T05:26:10;100135.38;;;8.69;100.00
81509;BME280;70930;52.412;13.554;2024-03-02T05:28:38;100124.31;;;8.65;100.00
81509;BME280;70930;52.412;13.554;2024-03-02T05:31:03;100130.44;;;8.66;100.00
81509;BME280;70930;52.412;13.554;2024-03-02T05:33:29;100138.03;;;8.83;100.00
81509;BME280;70930;52.412;13.554;2024-03-02T05:35:56;100140.00;;;8.67;100.00
81509;BME280;70930;52.412;13.554;2024-03-02T05:38:22;100147.41;;;8.71;100.00
81509;BME280;70930;52.412;13.554;2024-03-02T05:40:47;100148.91;;;8.74;100.00
81509;BME280;70930;52.412;13.554;2024-03-02T05:43:13;100152.09;;;8.84;100.00
81509;BME280;70930;52.412;13.554;2024-03-02T05:45:38;100152.28;;;8.82;100.00
81509;BME280;70930;52.412;13.554;2024-03-02T05:48:06;100150.47;;;8.83;100.00
81509;BME280;70930;52.412;13.554;2024-03-02T05:50:32;100154.34;;;8.72;100.00
81509;BME280;70930;52.412;13.554;2024-03-02T05:52:58;100154.59;;;8.63;100.00
81509;BME280;70930;52.412;13.554;2024-03-02T05:55:24;100157.38;;;8.69;100.00
81509;BME280;70930;52.412;13.554;2024-03-02T05:57:49;100155.19;;;8.50;100.00
81509;BME280;70930;52.412;13.554;2024-03-02T06:00:28;100161.25;;;8.58;100.00
81509;BME280;70930;52.412;13.554;2024-03-02T06:02:53;100156.91;;;8.66;100.00
81509;BME280;70930;52.412;13.554;2024-03-02T06:05:19;100154.41;;;8.64;100.00
81509;BME280;70930;52.412;13.554;2024-03-02T06:07:44;100155.75;;;8.83;100.00
81509;BME280;70930;52.412;13.554;2024-03-02T06:10:10;100150.72;;;8.73;100.00
81509;BME280;70930;52.412;13.554;2024-03-02T06:12:36;100152.09;;;8.69;100.00
81509;BME280;70930;52.412;13.554;2024-03-02T06:15:01;100160.59;;;8.79;100.00
81509;BME280;70930;52.412;13.554;2024-03-02T06:17:27;100151.22;;;8.92;100.00
81509;BME280;70930;52.412;13.554;2024-03-02T06:19:52;100157.63;;;8.97;100.00
81509;BME280;70930;52.412;13.554;2024-03-02T06:22:17;100159.00;;;8.93;100.00
81509;BME280;70930;52.412;13.554;2024-03-02T06:24:44;100168.22;;;8.97;100.00
81509;BME280;70930;52.412;13.554;2024-03-02T06:27:09;100158.25;;;8.84;100.00
81509;BME280;70930;52.412;13.554;2024-03-02T06:29:35;100172.16;;;9.01;100.00
81509;BME280;70930;52.412;13.554;2024-03-02T06:32:00;100177.00;;;8.98;100.00
81509;BME280;70930;52.412;13.554;2024-03-02T06:34:26;100173.75;;;8.88;100.00
81509;BME280;70930;52.412;13.554;2024-03-02T06:36:51;100181.47;;;8.74;100.00
81509;BME280;70930;52.412;13.554;2024-03-02T06:39:17;100175.38;;;8.74;100.00
81509;BME280;70930;52.412;13.554;2024-03-02T06:41:42;100180.13;;;8.55;100.00
81509;BME280;70930;52.412;13.554;2024-03-02T06:44:08;100173.13;;;8.63;100.00
81509;BME280;70930;52.412;13.554;2024-03-02T06:46:33;100182.59;;;8.80;100.00
81509;BME280;70930;52.412;13.554;2024-03-02T06:48:58;100176.59;;;8.86;100.00
81509;BME280;70930;52.412;13.554;2024-03-02T06:51:24;100184.81;;;8.91;100.00
81509;BME280;70930;52.412;13.554;2024-03-02T06:53:49;100184.81;;;8.91;100.00
81509;BME280;70930;52.412;13.554;2024-03-02T06:56:14;100185.66;;;8.69;100.00
81509;BME280;70930;52.412;13.554;2024-03-02T06:58:40;100184.78;;;8.76;100.00
81509;BME280;70930;52.412;13.554;2024-03-02T07:01:05;100186.66;;;8.68;100.00
81509;BME280;70930;52.412;13.554;2024-03-02T07:03:30;100186.78;;;8.74;100.00
81509;BME280;70930;52.412;13.554;2024-03-02T07:05:56;100189.84;;;8.86;100.00
81509;BME280;70930;52.412;13.554;2024-03-02T07:08:22;100188.28;;;8.92;100.00
81509;BME280;70930;52.412;13.554;2024-03-02T07:10:47;100194.78;;;8.89;100.00
81509;BME280;70930;52.412;13.554;2024-03-02T07:13:13;100193.69;;;8.98;100.00
81509;BME280;70930;52.412;13.554;2024-03-02T07:15:38;100200.34;;;8.94;100.00
81509;BME280;70930;52.412;13.554;2024-03-02T07:18:22;100204.44;;;8.82;100.00
81509;BME280;70930;52.412;13.554;2024-03-02T07:20:47;100204.47;;;8.97;100.00
81509;BME280;70930;52.412;13.554;2024-03-02T07:23:14;100215.63;;;8.92;100.00
81509;BME280;70930;52.412;13.554;2024-03-02T07:25:39;100218.19;;;8.77;100.00
81509;BME280;70930;52.412;13.554;2024-03-02T07:28:05;100214.75;;;8.92;100.00
81509;BME280;70930;52.412;13.554;2024-03-02T07:30:32;100219.31;;;8.83;100.00
81509;BME280;70930;52.412;13.554;2024-03-02T07:32:57;100220.13;;;8.83;100.00
81509;BME280;70930;52.412;13.554;2024-03-02T07:35:23;100225.88;;;8.87;100.00
81509;BME280;70930;52.412;13.554;2024-03-02T07:37:53;100228.03;;;8.69;100.00
81509;BME280;70930;52.412;13.554;2024-03-02T07:40:18;100230.25;;;8.57;100.00
81509;BME280;70930;52.412;13.554;2024-03-02T07:42:45;100239.53;;;8.53;100.00
81509;BME280;70930;52.412;13.554;2024-03-02T07:45:10;100234.91;;;8.47;100.00
81509;BME280;70930;52.412;13.554;2024-03-02T07:47:36;100251.84;;;8.69;100.00
81509;BME280;70930;52.412;13.554;2024-03-02T07:50:02;100248.09;;;8.86;100.00
81509;BME280;70930;52.412;13.554;2024-03-02T07:52:27;100244.56;;;8.94;100.00
81509;BME280;70930;52.412;13.554;2024-03-02T07:54:53;100254.72;;;8.82;100.00
81509;BME280;70930;52.412;13.554;2024-03-02T07:57:19;100250.53;;;9.10;100.00
81509;BME280;70930;52.412;13.554;2024-03-02T07:59:44;100254.53;;;9.06;100.00
81509;BME280;70930;52.412;13.554;2024-03-02T08:02:10;100254.59;;;8.75;100.00
81509;BME280;70930;52.412;13.554;2024-03-02T08:04:36;100263.50;;;8.82;100.00
81509;BME280;70930;52.412;13.554;2024-03-02T08:07:02;100261.03;;;8.81;100.00
81509;BME280;70930;52.412;13.554;2024-03-02T08:09:28;100267.16;;;8.81;100.00
81509;BME280;70930;52.412;13.554;2024-03-02T08:11:53;100263.63;;;8.89;100.00
81509;BME280;70930;52.412;13.554;2024-03-02T08:14:18;100265.94;;;8.92;100.00
81509;BME280;70930;52.412;13.554;2024-03-02T08:16:44;100266.78;;;9.07;100.00
81509;BME280;70930;52.412;13.554;2024-03-02T08:19:10;100265.00;;;9.00;100.00
81509;BME280;70930;52.412;13.554;2024-03-02T08:21:35;100269.38;;;8.93;100.00
81509;BME280;70930;52.412;13.554;2024-03-02T08:24:02;100275.56;;;9.08;100.00
81509;BME280;70930;52.412;13.554;2024-03-02T08:26:28;100275.31;;;8.95;100.00
81509;BME280;70930;52.412;13.554;2024-03-02T08:28:57;100274.56;;;9.09;100.00
81509;BME280;70930;52.412;13.554;2024-03-02T08:31:23;100282.44;;;9.17;100.00
81509;BME280;70930;52.412;13.554;2024-03-02T08:33:49;100284.88;;;9.04;100.00
81509;BME280;70930;52.412;13.554;2024-03-02T08:36:14;100282.59;;;8.70;99.76
81509;BME280;70930;52.412;13.554;2024-03-02T08:38:40;100280.91;;;9.00;99.60
81509;BME280;70930;52.412;13.554;2024-03-02T08:41:06;100282.31;;;9.10;100.00
81509;BME280;70930;52.412;13.554;2024-03-02T08:43:32;100276.91;;;9.27;97.89
81509;BME280;70930;52.412;13.554;2024-03-02T08:45:58;100281.81;;;8.92;99.27
81509;BME280;70930;52.412;13.554;2024-03-02T08:48:23;100286.56;;;8.74;99.94
81509;BME280;70930;52.412;13.554;2024-03-02T08:50:48;100289.63;;;8.85;100.00
81509;BME280;70930;52.412;13.554;2024-03-02T08:53:14;100285.63;;;8.90;98.88
81509;BME280;70930;52.412;13.554;2024-03-02T08:55:44;100285.31;;;9.07;98.12
81509;BME280;70930;52.412;13.554;2024-03-02T08:58:09;100285.56;;;9.21;97.65
81509;BME280;70930;52.412;13.554;2024-03-02T09:00:35;100289.09;;;9.13;98.27
81509;BME280;70930;52.412;13.554;2024-03-02T09:03:00;100294.00;;;9.01;98.46
81509;BME280;70930;52.412;13.554;2024-03-02T09:05:26;100300.50;;;8.91;96.98
81509;BME280;70930;52.412;13.554;2024-03-02T09:07:51;100304.63;;;8.93;98.52
81509;BME280;70930;52.412;13.554;2024-03-02T09:10:16;100298.81;;;9.21;97.25
81509;BME280;70930;52.412;13.554;2024-03-02T09:12:42;100301.72;;;8.80;98.85
81509;BME280;70930;52.412;13.554;2024-03-02T09:15:08;100302.28;;;8.98;97.76
81509;BME280;70930;52.412;13.554;2024-03-02T09:17:33;100301.34;;;9.37;96.46
81509;BME280;70930;52.412;13.554;2024-03-02T09:19:59;100301.13;;;9.24;96.67
81509;BME280;70930;52.412;13.554;2024-03-02T09:22:24;100291.69;;;9.44;96.54
81509;BME280;70930;52.412;13.554;2024-03-02T09:24:49;100297.13;;;9.28;96.62
81509;BME280;70930;52.412;13.554;2024-03-02T09:27:15;100292.81;;;9.65;95.98
81509;BME280;70930;52.412;13.554;2024-03-02T09:29:40;100293.78;;;9.49;95.87
81509;BME280;70930;52.412;13.554;2024-03-02T09:32:07;100292.88;;;9.56;95.71
81509;BME280;70930;52.412;13.554;2024-03-02T09:34:33;100300.25;;;9.84;94.57
81509;BME280;70930;52.412;13.554;2024-03-02T09:36:59;100298.88;;;9.88;94.83
81509;BME280;70930;52.412;13.554;2024-03-02T09:39:24;100300.66;;;10.11;92.53
81509;BME280;70930;52.412;13.554;2024-03-02T09:41:53;100301.56;;;10.03;90.63
81509;BME280;70930;52.412;13.554;2024-03-02T09:44:19;100293.97;;;10.44;91.66
81509;BME280;70930;52.412;13.554;2024-03-02T09:46:49;100300.63;;;10.55;91.00
81509;BME280;70930;52.412;13.554;2024-03-02T09:49:14;100296.25;;;10.47;90.13
81509;BME280;70930;52.412;13.554;2024-03-02T09:51:40;100300.06;;;10.60;90.37
81509;BME280;70930;52.412;13.554;2024-03-02T09:54:09;100294.41;;;10.48;88.41
81509;BME280;70930;52.412;13.554;2024-03-02T09:56:34;100301.19;;;10.50;88.12
81509;BME280;70930;52.412;13.554;2024-03-02T09:59:01;100311.97;;;10.64;87.35
81509;BME280;70930;52.412;13.554;2024-03-02T10:01:26;100299.84;;;11.12;90.39
81509;BME280;70930;52.412;13.554;2024-03-02T10:03:53;100303.56;;;11.18;86.64
81509;BME280;70930;52.412;13.554;2024-03-02T10:06:23;100317.06;;;10.80;84.72
81509;BME280;70930;52.412;13.554;2024-03-02T10:08:49;100310.47;;;11.12;84.73
81509;BME280;70930;52.412;13.554;2024-03-02T10:11:32;100311.75;;;10.80;85.25
81509;BME280;70930;52.412;13.554;2024-03-02T10:14:08;100305.97;;;11.34;85.10
81509;BME280;70930;52.412;13.554;2024-03-02T10:16:41;100307.78;;;11.55;81.00
81509;BME280;70930;52.412;13.554;2024-03-02T10:19:16;100296.97;;;11.35;83.71
81509;BME280;70930;52.412;13.554;2024-03-02T10:21:49;100294.75;;;11.39;82.58
81509;BME280;70930;52.412;13.554;2024-03-02T10:24:18;100303.53;;;11.39;82.84
81509;BME280;70930;52.412;13.554;2024-03-02T10:26:44;100300.72;;;11.41;81.88
81509;BME280;70930;52.412;13.554;2024-03-02T10:29:10;100301.84;;;11.10;83.99
81509;BME280;70930;52.412;13.554;2024-03-02T10:31:42;100296.72;;;11.30;82.58
81509;BME280;70930;52.412;13.554;2024-03-02T10:34:10;100297.63;;;11.37;82.52
81509;BME280;70930;52.412;13.554;2024-03-02T10:36:36;100299.31;;;11.02;83.67
81509;BME280;70930;52.412;13.554;2024-03-02T10:39:05;100306.91;;;11.05;83.33
81509;BME280;70930;52.412;13.554;2024-03-02T10:41:38;100308.47;;;10.78;84.34
81509;BME280;70930;52.412;13.554;2024-03-02T10:44:05;100296.22;;;10.77;81.86
81509;BME280;70930;52.412;13.554;2024-03-02T10:46:32;100303.16;;;10.78;83.15
81509;BME280;70930;52.412;13.554;2024-03-02T10:48:59;100302.56;;;10.46;82.58
81509;BME280;70930;52.412;13.554;2024-03-02T10:51:28;100301.72;;;10.61;81.94
81509;BME280;70930;52.412;13.554;2024-03-02T10:53:57;100295.56;;;10.75;81.27
81509;BME280;70930;52.412;13.554;2024-03-02T10:56:42;100302.47;;;10.91;82.58
81509;BME280;70930;52.412;13.554;2024-03-02T11:01:47;100291.91;;;11.19;79.18
81509;BME280;70930;52.412;13.554;2024-03-02T11:04:12;100289.63;;;11.16;78.06
81509;BME280;70930;52.412;13.554;2024-03-02T11:06:40;100290.75;;;11.49;79.61
81509;BME280;70930;52.412;13.554;2024-03-02T11:09:09;100296.00;;;11.43;77.61
81509;BME280;70930;52.412;13.554;2024-03-02T11:11:37;100286.59;;;11.40;80.71
81509;BME280;70930;52.412;13.554;2024-03-02T11:14:07;100287.19;;;11.64;79.46
81509;BME280;70930;52.412;13.554;2024-03-02T11:16:35;100290.41;;;11.59;80.62
81509;BME280;70930;52.412;13.554;2024-03-02T11:19:10;100290.53;;;11.44;78.61
81509;BME280;70930;52.412;13.554;2024-03-02T11:21:36;100288.31;;;11.48;77.62
81509;BME280;70930;52.412;13.554;2024-03-02T11:26:46;100292.97;;;11.46;76.63
81509;BME280;70930;52.412;13.554;2024-03-02T11:32:03;100298.13;;;11.75;79.55
81509;BME280;70930;52.412;13.554;2024-03-02T11:34:30;100285.97;;;12.22;77.54
81509;BME280;70930;52.412;13.554;2024-03-02T11:36:55;100281.28;;;12.31;73.46
81509;BME280;70930;52.412;13.554;2024-03-02T11:39:21;100285.81;;;12.31;74.24
81509;BME280;70930;52.412;13.554;2024-03-02T11:41:46;100281.53;;;12.01;74.76
81509;BME280;70930;52.412;13.554;2024-03-02T11:44:12;100285.09;;;12.15;76.25
81509;BME280;70930;52.412;13.554;2024-03-02T11:46:39;100286.75;;;12.58;74.04
81509;BME280;70930;52.412;13.554;2024-03-02T11:49:05;100287.84;;;12.83;70.96
81509;BME280;70930;52.412;13.554;2024-03-02T11:51:34;100289.69;;;12.96;70.08
81509;BME280;70930;52.412;13.554;2024-03-02T11:54:00;100284.00;;;13.06;69.29
81509;BME280;70930;52.412;13.554;2024-03-02T11:56:28;100286.16;;;12.75;68.73
81509;BME280;70930;52.412;13.554;2024-03-02T11:58:56;100279.91;;;13.10;70.12
81509;BME280;70930;52.412;13.554;2024-03-02T12:01:22;100284.13;;;12.84;70.47
81509;BME280;70930;52.412;13.554;2024-03-02T12:03:48;100280.16;;;13.41;67.12
81509;BME280;70930;52.412;13.554;2024-03-02T12:06:14;100275.81;;;13.14;66.04
81509;BME280;70930;52.412;13.554;2024-03-02T12:08:40;100278.25;;;14.02;67.80
81509;BME280;70930;52.412;13.554;2024-03-02T12:11:05;100282.47;;;14.36;60.68
81509;BME280;70930;52.412;13.554;2024-03-02T12:13:31;100270.72;;;14.43;62.15
81509;BME280;70930;52.412;13.554;2024-03-02T12:15:58;100271.09;;;13.82;62.55
81509;BME280;70930;52.412;13.554;2024-03-02T12:18:24;100273.34;;;14.57;62.95
81509;BME280;70930;52.412;13.554;2024-03-02T12:20:50;100269.19;;;14.74;62.81
81509;BME280;70930;52.412;13.554;2024-03-02T12:23:22;100266.16;;;14.57;60.67
81509;BME280;70930;52.412;13.554;2024-03-02T12:25:48;100261.56;;;15.09;60.22
81509;BME280;70930;52.412;13.554;2024-03-02T12:28:14;100262.53;;;15.15;59.62
81509;BME280;70930;52.412;13.554;2024-03-02T12:30:39;100259.16;;;15.26;58.70
81509;BME280;70930;52.412;13.554;2024-03-02T12:33:05;100261.69;;;15.21;60.80
81509;BME280;70930;52.412;13.554;2024-03-02T12:35:30;100275.41;;;15.25;60.53
81509;BME280;70930;52.412;13.554;2024-03-02T12:37:55;100264.50;;;14.63;60.62
81509;BME280;70930;52.412;13.554;2024-03-02T12:40:21;100270.47;;;14.96;60.64
81509;BME280;70930;52.412;13.554;2024-03-02T12:42:48;100261.44;;;15.22;59.74
81509;BME280;70930;52.412;13.554;2024-03-02T12:45:14;100257.19;;;15.15;57.77
81509;BME280;70930;52.412;13.554;2024-03-02T12:47:40;100261.47;;;15.16;58.37